createdAt,value
2023-03-19T00:00:29.078Z,20.63
2023-03-19T00:01:06.545Z,20.37
2023-03-19T00:01:38.723Z,19.17
2023-03-19T00:02:17.630Z,19.13
2023-03-19T00:02:52.267Z,19.57
2023-03-19T00:03:24.372Z,19.07
2023-03-19T00:03:56.678Z,19.13
2023-03-19T00:04:28.808Z,20.43
2023-03-19T00:05:00.962Z,19.50
2023-03-19T00:05:33.339Z,19.57
2023-03-19T00:06:05.782Z,19.53
2023-03-19T00:06:37.698Z,19.83
2023-03-19T00:07:10.048Z,19.67
2023-03-19T00:07:42.162Z,18.73
2023-03-19T00:08:14.029Z,19.37
2023-03-19T00:08:46.213Z,19.97
2023-03-19T00:09:19.608Z,19.17
2023-03-19T00:09:51.912Z,19.07
2023-03-19T00:10:23.879Z,19.03
2023-03-19T00:10:55.977Z,19.20
2023-03-19T00:11:28.077Z,19.63
2023-03-19T00:12:00.009Z,18.97
2023-03-19T00:12:32.299Z,19.27
2023-03-19T00:13:04.247Z,18.83
2023-03-19T00:13:36.647Z,18.17
2023-03-19T00:14:09.023Z,18.63
2023-03-19T00:14:41.317Z,18.50
2023-03-19T00:15:14.626Z,19.70
2023-03-19T00:15:47.465Z,19.83
2023-03-19T00:16:20.933Z,19.20
2023-03-19T00:16:53.501Z,19.20
2023-03-19T00:17:25.618Z,20.23
2023-03-19T00:17:57.766Z,20.03
2023-03-19T00:18:30.843Z,20.07
2023-03-19T00:19:04.048Z,20.00
2023-03-19T00:19:36.174Z,19.93
2023-03-19T00:20:09.457Z,20.17
2023-03-19T00:20:41.622Z,20.57
2023-03-19T00:21:14.169Z,18.53
2023-03-19T00:21:46.773Z,18.37
2023-03-19T00:22:18.926Z,19.37
2023-03-19T00:22:51.340Z,19.30
2023-03-19T00:23:23.438Z,18.70
2023-03-19T00:24:00.995Z,19.93
2023-03-19T00:24:33.414Z,20.27
2023-03-19T00:25:05.881Z,19.23
2023-03-19T00:25:37.872Z,19.70
2023-03-19T00:26:10.070Z,19.57
2023-03-19T00:26:43.970Z,18.73
2023-03-19T00:27:16.046Z,19.70
2023-03-19T00:27:48.131Z,19.77
2023-03-19T00:28:20.053Z,18.63
2023-03-19T00:28:52.106Z,18.20
2023-03-19T00:29:24.141Z,18.93
2023-03-19T00:29:56.415Z,19.67
2023-03-19T00:30:29.354Z,18.83
2023-03-19T00:31:15.648Z,20.07
2023-03-19T00:31:47.821Z,19.93
2023-03-19T00:32:20.337Z,18.43
2023-03-19T00:32:52.543Z,18.40
2023-03-19T00:33:25.491Z,18.80
2023-03-19T00:33:58.755Z,19.80
2023-03-19T00:34:30.697Z,18.77
2023-03-19T00:35:04.066Z,19.40
2023-03-19T00:35:36.648Z,19.27
2023-03-19T00:36:11.022Z,18.80
2023-03-19T00:36:42.990Z,18.77
2023-03-19T00:37:16.558Z,19.60
2023-03-19T00:37:48.506Z,19.33
2023-03-19T00:38:20.700Z,19.63
2023-03-19T00:38:53.121Z,19.47
2023-03-19T00:39:25.083Z,18.97
2023-03-19T00:39:57.422Z,19.37
2023-03-19T00:40:29.384Z,19.20
2023-03-19T00:41:02.541Z,19.37
2023-03-19T00:41:34.608Z,20.33
2023-03-19T00:42:07.198Z,19.43
2023-03-19T00:42:39.272Z,18.87
2023-03-19T00:43:11.598Z,19.53
2023-03-19T00:43:43.900Z,18.77
2023-03-19T00:44:19.315Z,19.23
2023-03-19T00:44:51.335Z,18.30
2023-03-19T00:45:23.905Z,19.33
2023-03-19T00:45:56.008Z,18.70
2023-03-19T00:46:28.578Z,18.10
2023-03-19T00:47:00.627Z,18.97
2023-03-19T00:47:32.551Z,18.53
2023-03-19T00:48:04.822Z,18.57
2023-03-19T00:48:36.895Z,20.13
2023-03-19T00:49:08.965Z,18.80
2023-03-19T00:49:40.929Z,19.40
2023-03-19T00:50:13.019Z,19.57
2023-03-19T00:50:45.023Z,18.50
2023-03-19T00:51:17.402Z,18.83
2023-03-19T00:51:49.293Z,18.63
2023-03-19T00:52:21.378Z,18.23
2023-03-19T00:52:53.282Z,18.70
2023-03-19T00:53:25.335Z,19.03
2023-03-19T00:53:57.349Z,18.70
2023-03-19T00:54:29.341Z,18.60
2023-03-19T00:55:02.084Z,19.53
2023-03-19T00:55:34.175Z,19.67
2023-03-19T00:56:07.769Z,19.10
2023-03-19T00:56:39.835Z,19.57
2023-03-19T00:57:11.901Z,20.17
2023-03-19T00:57:43.846Z,20.80
2023-03-19T00:58:15.851Z,20.90
2023-03-19T00:58:48.017Z,21.77
2023-03-19T00:59:20.334Z,21.07
2023-03-19T00:59:52.596Z,21.20
2023-03-19T01:00:24.683Z,21.40
2023-03-19T01:00:57.081Z,19.70
2023-03-19T01:01:29.333Z,20.57
2023-03-19T01:02:01.551Z,21.47
2023-03-19T01:02:33.620Z,20.37
2023-03-19T01:03:06.558Z,20.07
2023-03-19T01:03:39.124Z,19.47
2023-03-19T01:04:11.353Z,20.73
2023-03-19T01:04:44.007Z,20.30
2023-03-19T01:05:16.554Z,19.77
2023-03-19T01:06:20.359Z,19.67
2023-03-19T01:06:52.976Z,20.23
2023-03-19T01:07:24.959Z,20.13
2023-03-19T01:07:57.709Z,19.33
2023-03-19T01:08:29.773Z,19.50
2023-03-19T01:09:02.933Z,20.07
2023-03-19T01:09:36.045Z,19.20
2023-03-19T01:10:09.754Z,19.83
2023-03-19T01:10:41.972Z,20.00
2023-03-19T01:11:17.284Z,20.10
2023-03-19T01:11:49.446Z,21.23
2023-03-19T01:12:21.529Z,20.13
2023-03-19T01:12:53.461Z,20.50
2023-03-19T01:13:25.537Z,20.77
2023-03-19T01:13:59.042Z,20.27
2023-03-19T01:14:32.288Z,20.80
2023-03-19T01:15:07.195Z,21.17
2023-03-19T01:15:41.734Z,22.40
2023-03-19T01:16:14.295Z,22.53
2023-03-19T01:16:46.368Z,20.73
2023-03-19T01:17:18.247Z,20.73
2023-03-19T01:17:50.732Z,21.43
2023-03-19T01:18:22.892Z,21.23
2023-03-19T01:18:55.190Z,21.00
2023-03-19T01:19:27.558Z,20.57
2023-03-19T01:19:59.840Z,20.87
2023-03-19T01:20:32.428Z,21.10
2023-03-19T01:21:05.417Z,21.53
2023-03-19T01:21:39.014Z,21.03
2023-03-19T01:22:11.259Z,22.37
2023-03-19T01:22:46.618Z,21.20
2023-03-19T01:23:18.621Z,21.27
2023-03-19T01:23:52.121Z,20.07
2023-03-19T01:24:29.034Z,19.83
2023-03-19T01:25:02.268Z,19.87
2023-03-19T01:25:35.777Z,19.40
2023-03-19T01:26:09.813Z,20.10
2023-03-19T01:26:43.697Z,18.73
2023-03-19T01:27:23.167Z,20.83
2023-03-19T01:27:56.464Z,20.03
2023-03-19T01:28:28.566Z,19.67
2023-03-19T01:29:00.904Z,19.00
2023-03-19T01:29:33.676Z,19.70
2023-03-19T01:30:15.395Z,20.10
2023-03-19T01:31:09.137Z,19.50
2023-03-19T01:31:56.446Z,19.40
2023-03-19T01:32:39.585Z,20.13
2023-03-19T01:33:25.671Z,21.73
2023-03-19T01:34:07.531Z,21.17
2023-03-19T01:34:48.703Z,20.17
2023-03-19T01:35:22.494Z,21.47
2023-03-19T01:35:55.746Z,21.17
2023-03-19T01:36:31.493Z,20.67
2023-03-19T01:37:09.400Z,19.50
2023-03-19T01:37:42.740Z,20.13
2023-03-19T01:38:15.441Z,19.93
2023-03-19T01:38:48.159Z,20.17
2023-03-19T01:39:21.080Z,21.93
2023-03-19T01:39:56.166Z,22.83
2023-03-19T01:40:29.203Z,22.00
2023-03-19T01:41:01.656Z,19.60
2023-03-19T01:41:33.785Z,21.30
2023-03-19T01:42:17.691Z,22.00
2023-03-19T01:43:21.631Z,21.43
2023-03-19T01:44:32.674Z,22.27
2023-03-19T01:45:38.040Z,21.57
2023-03-19T01:46:38.530Z,20.87
2023-03-19T01:47:34.796Z,21.97
2023-03-19T01:48:48.643Z,21.17
2023-03-19T01:49:25.142Z,22.53
2023-03-19T01:50:25.935Z,21.77
2023-03-19T01:51:22.316Z,21.83
2023-03-19T01:52:15.100Z,21.30
2023-03-19T01:53:01.337Z,22.30
2023-03-19T01:53:56.418Z,21.83
2023-03-19T01:54:57.084Z,21.47
2023-03-19T01:55:55.882Z,21.73
2023-03-19T01:56:55.421Z,20.77
2023-03-19T01:57:46.281Z,20.10
2023-03-19T01:58:48.572Z,18.73
2023-03-19T01:59:43.097Z,20.53
2023-03-19T02:00:38.269Z,21.67
2023-03-19T02:01:10.707Z,21.23
2023-03-19T02:01:55.107Z,20.93
2023-03-19T02:02:33.258Z,19.87
2023-03-19T02:03:13.714Z,20.03
2023-03-19T02:03:57.274Z,20.57
2023-03-19T02:04:35.329Z,20.53
2023-03-19T02:05:14.833Z,20.83
2023-03-19T02:05:51.538Z,21.43
2023-03-19T02:06:24.848Z,20.13
2023-03-19T02:06:58.170Z,19.60
2023-03-19T02:07:34.272Z,20.00
2023-03-19T02:08:11.486Z,19.87
2023-03-19T02:08:44.131Z,20.03
2023-03-19T02:09:18.874Z,20.20
2023-03-19T02:09:51.322Z,21.00
2023-03-19T02:10:26.315Z,20.87
2023-03-19T02:11:08.010Z,20.43
2023-03-19T02:11:40.148Z,20.57
2023-03-19T02:12:13.841Z,21.27
2023-03-19T02:12:46.985Z,21.10
2023-03-19T02:13:19.576Z,20.87
2023-03-19T02:13:52.134Z,20.73
2023-03-19T02:14:24.307Z,20.57
2023-03-19T02:14:57.069Z,20.80
2023-03-19T02:15:29.267Z,20.47
2023-03-19T02:16:01.943Z,21.03
2023-03-19T02:16:35.054Z,21.37
2023-03-19T02:17:08.963Z,20.83
2023-03-19T02:17:42.522Z,20.20
2023-03-19T02:18:16.125Z,20.73
2023-03-19T02:18:50.141Z,21.10
2023-03-19T02:19:51.960Z,20.80
2023-03-19T02:20:45.924Z,20.80
2023-03-19T02:21:22.080Z,21.30
2023-03-19T02:21:56.803Z,20.13
2023-03-19T02:22:31.738Z,20.07
2023-03-19T02:23:42.126Z,20.50
2023-03-19T02:24:54.798Z,20.37
2023-03-19T02:25:39.020Z,20.23
2023-03-19T02:26:16.374Z,20.83
2023-03-19T02:26:51.613Z,21.60
2023-03-19T02:27:23.873Z,20.93
2023-03-19T02:27:57.921Z,20.60
2023-03-19T02:28:32.639Z,22.87
2023-03-19T02:29:04.695Z,20.93
2023-03-19T02:29:39.499Z,20.87
2023-03-19T02:30:29.835Z,21.00
2023-03-19T02:31:04.743Z,21.40
2023-03-19T02:31:37.646Z,21.53
2023-03-19T02:32:11.256Z,21.10
2023-03-19T02:32:43.230Z,21.40
2023-03-19T02:33:18.543Z,22.03
2023-03-19T02:34:27.339Z,21.57
2023-03-19T02:34:59.426Z,22.53
2023-03-19T02:35:35.384Z,22.43
2023-03-19T02:36:15.637Z,21.77
2023-03-19T02:37:00.187Z,20.33
2023-03-19T02:37:33.730Z,20.53
2023-03-19T02:38:06.407Z,21.37
2023-03-19T02:38:42.907Z,21.03
2023-03-19T02:39:26.333Z,20.83
2023-03-19T02:40:05.563Z,21.67
2023-03-19T02:40:45.914Z,21.87
2023-03-19T02:41:17.845Z,21.70
2023-03-19T02:41:53.358Z,20.40
2023-03-19T02:42:30.238Z,21.23
2023-03-19T02:43:02.311Z,20.67
2023-03-19T02:43:36.990Z,20.53
2023-03-19T02:44:12.438Z,20.20
2023-03-19T02:44:46.321Z,20.73
2023-03-19T02:45:18.438Z,20.57
2023-03-19T02:45:50.682Z,21.57
2023-03-19T02:46:22.762Z,21.07
2023-03-19T02:46:54.887Z,22.00
2023-03-19T02:47:27.679Z,21.50
2023-03-19T02:48:00.550Z,22.40
2023-03-19T02:48:33.065Z,21.10
2023-03-19T02:49:05.419Z,21.20
2023-03-19T02:49:37.338Z,21.17
2023-03-19T02:50:10.202Z,21.80
2023-03-19T02:50:42.162Z,22.43
2023-03-19T02:51:14.290Z,22.80
2023-03-19T02:51:46.289Z,22.37
2023-03-19T02:52:19.696Z,21.20
2023-03-19T02:52:51.877Z,20.70
2023-03-19T02:53:25.129Z,20.40
2023-03-19T02:53:57.330Z,21.23
2023-03-19T02:54:29.355Z,22.20
2023-03-19T02:55:01.784Z,21.17
2023-03-19T02:55:34.025Z,19.70
2023-03-19T02:56:06.590Z,22.13
2023-03-19T02:56:38.544Z,20.60
2023-03-19T02:57:11.150Z,21.87
2023-03-19T02:57:43.282Z,21.57
2023-03-19T02:58:15.645Z,22.27
2023-03-19T02:58:47.792Z,20.87
2023-03-19T02:59:21.180Z,21.97
2023-03-19T02:59:53.150Z,21.00
2023-03-19T03:00:25.652Z,21.00
2023-03-19T03:00:57.636Z,22.20
2023-03-19T03:01:30.108Z,21.70
2023-03-19T03:02:02.309Z,20.77
2023-03-19T03:02:34.396Z,20.47
2023-03-19T03:03:09.441Z,21.07
2023-03-19T03:03:41.890Z,21.27
2023-03-19T03:04:16.490Z,20.17
2023-03-19T03:04:49.469Z,20.93
2023-03-19T03:05:21.561Z,20.67
2023-03-19T03:05:53.481Z,21.23
2023-03-19T03:06:25.676Z,20.30
2023-03-19T03:06:57.787Z,20.23
2023-03-19T03:07:30.417Z,21.77
2023-03-19T03:08:04.288Z,21.40
2023-03-19T03:08:36.836Z,21.37
2023-03-19T03:09:09.139Z,21.13
2023-03-19T03:09:41.440Z,19.83
2023-03-19T03:10:13.589Z,18.93
2023-03-19T03:10:45.732Z,20.30
2023-03-19T03:11:17.639Z,20.50
2023-03-19T03:11:50.031Z,21.27
2023-03-19T03:12:22.763Z,19.40
2023-03-19T03:12:54.933Z,20.17
2023-03-19T03:13:27.972Z,20.60
2023-03-19T03:14:00.172Z,20.33
2023-03-19T03:14:32.128Z,20.17
2023-03-19T03:15:05.240Z,20.70
2023-03-19T03:15:37.566Z,20.43
2023-03-19T03:16:10.254Z,21.00
2023-03-19T03:16:42.325Z,21.73
2023-03-19T03:17:14.374Z,21.47
2023-03-19T03:17:46.932Z,22.10
2023-03-19T03:18:19.560Z,22.70
2023-03-19T03:18:51.505Z,21.97
2023-03-19T03:19:24.678Z,21.77
2023-03-19T03:19:56.796Z,21.43
2023-03-19T03:20:29.225Z,22.63
2023-03-19T03:21:01.454Z,22.10
2023-03-19T03:21:35.357Z,20.63
2023-03-19T03:22:08.073Z,21.93
2023-03-19T03:22:40.078Z,21.27
2023-03-19T03:23:12.083Z,21.07
2023-03-19T03:23:43.946Z,21.20
2023-03-19T03:24:15.930Z,21.13
2023-03-19T03:24:47.886Z,20.40
2023-03-19T03:25:19.817Z,22.20
2023-03-19T03:25:52.465Z,23.23
2023-03-19T03:26:24.474Z,22.53
2023-03-19T03:26:56.656Z,22.80
2023-03-19T03:27:28.659Z,21.03
2023-03-19T03:28:00.633Z,21.90
2023-03-19T03:28:32.538Z,21.37
2023-03-19T03:29:08.275Z,21.03
2023-03-19T03:29:40.247Z,21.73
2023-03-19T03:30:12.872Z,22.10
2023-03-19T03:30:45.694Z,21.43
2023-03-19T03:31:18.145Z,21.70
2023-03-19T03:31:50.342Z,21.70
2023-03-19T03:32:22.579Z,21.83
2023-03-19T03:32:54.682Z,21.17
2023-03-19T03:33:30.412Z,23.30
2023-03-19T03:34:02.653Z,22.00
2023-03-19T03:34:34.913Z,21.10
2023-03-19T03:35:08.307Z,20.67
2023-03-19T03:35:40.641Z,21.83
2023-03-19T03:36:13.399Z,21.73
2023-03-19T03:36:47.321Z,20.33
2023-03-19T03:37:19.790Z,20.60
2023-03-19T03:37:52.242Z,20.73
2023-03-19T03:38:24.195Z,21.57
2023-03-19T03:38:56.483Z,21.40
2023-03-19T03:39:28.768Z,20.83
2023-03-19T03:40:00.705Z,21.63
2023-03-19T03:40:34.574Z,22.03
2023-03-19T03:41:06.944Z,21.97
2023-03-19T03:41:40.257Z,22.07
2023-03-19T03:42:13.544Z,21.23
2023-03-19T03:42:46.729Z,22.70
2023-03-19T03:43:21.264Z,23.37
2023-03-19T03:43:53.472Z,22.57
2023-03-19T03:44:25.409Z,21.77
2023-03-19T03:44:57.294Z,22.03
2023-03-19T03:45:29.295Z,22.10
2023-03-19T03:46:01.594Z,23.17
2023-03-19T03:46:33.757Z,22.67
2023-03-19T03:47:06.822Z,22.33
2023-03-19T03:47:40.018Z,22.00
2023-03-19T03:48:12.465Z,21.77
2023-03-19T03:48:44.480Z,21.60
2023-03-19T03:49:16.526Z,21.17
2023-03-19T03:49:48.769Z,20.67
2023-03-19T03:50:21.194Z,21.17
2023-03-19T03:50:55.759Z,20.50
2023-03-19T03:51:32.256Z,21.00
2023-03-19T03:52:05.079Z,20.83
2023-03-19T03:52:39.587Z,20.13
2023-03-19T03:53:13.014Z,20.90
2023-03-19T03:53:45.035Z,20.20
2023-03-19T03:54:17.866Z,20.23
2023-03-19T03:54:49.913Z,21.00
2023-03-19T03:55:21.972Z,20.87
2023-03-19T03:55:54.178Z,21.50
2023-03-19T03:56:29.686Z,21.70
2023-03-19T03:57:03.678Z,20.60
2023-03-19T03:57:37.452Z,22.57
2023-03-19T03:58:09.764Z,21.47
2023-03-19T03:58:42.332Z,21.83
2023-03-19T03:59:14.457Z,20.80
2023-03-19T03:59:46.510Z,20.90
2023-03-19T04:00:19.242Z,21.00
2023-03-19T04:00:52.358Z,21.80
2023-03-19T04:01:24.879Z,21.73
2023-03-19T04:02:00.564Z,22.43
2023-03-19T04:02:32.902Z,22.70
2023-03-19T04:03:05.298Z,21.77
2023-03-19T04:03:38.058Z,21.47
2023-03-19T04:04:10.494Z,21.30
2023-03-19T04:04:43.229Z,21.17
2023-03-19T04:05:15.698Z,21.27
2023-03-19T04:05:48.063Z,21.43
2023-03-19T04:06:23.054Z,21.77
2023-03-19T04:07:10.519Z,20.27
2023-03-19T04:07:47.089Z,20.50
2023-03-19T04:08:19.391Z,20.33
2023-03-19T04:08:52.300Z,20.40
2023-03-19T04:09:24.441Z,20.03
2023-03-19T04:09:58.671Z,21.33
2023-03-19T04:10:32.494Z,20.80
2023-03-19T04:11:07.758Z,20.63
2023-03-19T04:11:41.598Z,21.07
2023-03-19T04:12:15.436Z,21.33
2023-03-19T04:12:48.116Z,20.63
2023-03-19T04:13:20.469Z,20.27
2023-03-19T04:13:55.575Z,20.27
2023-03-19T04:14:28.320Z,19.70
2023-03-19T04:15:01.184Z,20.47
2023-03-19T04:15:33.507Z,20.53
2023-03-19T04:16:10.400Z,20.53
2023-03-19T04:16:44.264Z,19.93
2023-03-19T04:17:16.322Z,19.80
2023-03-19T04:17:49.015Z,19.17
2023-03-19T04:18:23.605Z,20.43
2023-03-19T04:19:06.327Z,19.53
2023-03-19T04:19:40.374Z,19.03
2023-03-19T04:20:12.834Z,18.70
2023-03-19T04:20:45.345Z,18.93
2023-03-19T04:21:17.879Z,19.13
2023-03-19T04:21:50.297Z,18.93
2023-03-19T04:22:22.783Z,19.93
2023-03-19T04:22:54.861Z,20.47
2023-03-19T04:23:27.373Z,19.20
2023-03-19T04:23:59.352Z,20.17
2023-03-19T04:24:31.559Z,20.40
2023-03-19T04:25:08.298Z,20.07
2023-03-19T04:25:41.659Z,20.80
2023-03-19T04:26:14.262Z,20.93
2023-03-19T04:26:48.583Z,19.90
2023-03-19T04:27:21.248Z,19.03
2023-03-19T04:27:53.691Z,21.17
2023-03-19T04:28:25.657Z,20.20
2023-03-19T04:28:58.136Z,20.00
2023-03-19T04:29:30.557Z,21.10
2023-03-19T04:30:03.494Z,20.17
2023-03-19T04:30:36.225Z,20.93
2023-03-19T04:31:09.512Z,20.50
2023-03-19T04:31:45.837Z,19.90
2023-03-19T04:32:18.219Z,20.43
2023-03-19T04:32:50.275Z,19.93
2023-03-19T04:33:22.332Z,19.43
2023-03-19T04:33:54.414Z,19.43
2023-03-19T04:34:26.469Z,19.87
2023-03-19T04:34:58.697Z,20.90
2023-03-19T04:35:31.449Z,20.03
2023-03-19T04:36:04.625Z,21.33
2023-03-19T04:36:36.773Z,19.90
2023-03-19T04:37:10.418Z,20.50
2023-03-19T04:37:49.810Z,21.80
2023-03-19T04:38:28.601Z,21.50
2023-03-19T04:39:01.173Z,21.20
2023-03-19T04:39:33.562Z,21.23
2023-03-19T04:40:06.148Z,21.80
2023-03-19T04:40:41.637Z,21.07
2023-03-19T04:41:17.872Z,19.87
2023-03-19T04:42:03.614Z,20.57
2023-03-19T04:42:39.500Z,19.33
2023-03-19T04:43:15.870Z,19.80
2023-03-19T04:43:48.119Z,20.37
2023-03-19T04:44:20.646Z,20.33
2023-03-19T04:44:53.588Z,19.47
2023-03-19T04:45:26.669Z,19.47
2023-03-19T04:45:58.719Z,19.97
2023-03-19T04:46:31.379Z,19.93
2023-03-19T04:47:04.921Z,19.43
2023-03-19T04:47:47.257Z,20.63
2023-03-19T04:48:19.434Z,19.23
2023-03-19T04:48:52.261Z,20.23
2023-03-19T04:49:24.696Z,20.40
2023-03-19T04:49:58.501Z,20.37
2023-03-19T04:50:31.524Z,19.73
2023-03-19T04:51:04.466Z,19.50
2023-03-19T04:51:36.577Z,19.37
2023-03-19T04:52:09.431Z,19.07
2023-03-19T04:52:41.721Z,19.80
2023-03-19T04:53:13.788Z,18.63
2023-03-19T04:53:46.509Z,19.23
2023-03-19T04:54:19.079Z,19.23
2023-03-19T04:54:50.996Z,18.70
2023-03-19T04:55:23.736Z,18.93
2023-03-19T04:56:10.433Z,18.83
2023-03-19T04:56:42.987Z,18.13
2023-03-19T04:57:15.831Z,18.23
2023-03-19T04:57:49.656Z,18.90
2023-03-19T04:58:22.356Z,18.33
2023-03-19T04:59:01.658Z,17.53
2023-03-19T04:59:33.698Z,17.83
2023-03-19T05:00:07.157Z,18.40
2023-03-19T05:00:42.818Z,18.73
2023-03-19T05:01:15.042Z,18.77
2023-03-19T05:02:09.626Z,18.93
2023-03-19T05:02:43.636Z,18.07
2023-03-19T05:03:16.124Z,18.60
2023-03-19T05:03:49.585Z,17.87
2023-03-19T05:04:21.854Z,17.70
2023-03-19T05:04:54.799Z,18.70
2023-03-19T05:05:26.901Z,18.80
2023-03-19T05:05:58.976Z,17.93
2023-03-19T05:06:32.275Z,17.37
2023-03-19T05:07:04.271Z,18.77
2023-03-19T05:07:37.066Z,18.37
2023-03-19T05:08:11.661Z,18.80
2023-03-19T05:08:44.199Z,17.93
2023-03-19T05:09:16.446Z,17.53
2023-03-19T05:09:48.636Z,18.10
2023-03-19T05:10:21.483Z,16.90
2023-03-19T05:10:53.648Z,17.23
2023-03-19T05:11:26.225Z,17.60
2023-03-19T05:12:15.124Z,17.70
2023-03-19T05:12:51.320Z,17.40
2023-03-19T05:13:23.550Z,16.93
2023-03-19T05:13:56.968Z,17.17
2023-03-19T05:14:29.129Z,16.63
2023-03-19T05:15:16.366Z,18.00
2023-03-19T05:16:01.769Z,18.07
2023-03-19T05:16:35.701Z,18.03
2023-03-19T05:17:08.677Z,18.20
2023-03-19T05:17:52.245Z,18.03
2023-03-19T05:18:29.392Z,18.83
2023-03-19T05:19:02.001Z,17.60
2023-03-19T05:19:35.696Z,18.27
2023-03-19T05:20:09.898Z,17.70
2023-03-19T05:20:43.531Z,16.50
2023-03-19T05:21:23.099Z,17.20
2023-03-19T05:21:57.397Z,17.13
2023-03-19T05:22:30.525Z,16.63
2023-03-19T05:23:02.893Z,17.40
2023-03-19T05:23:52.383Z,17.57
2023-03-19T05:24:25.395Z,17.23
2023-03-19T05:24:58.679Z,16.90
2023-03-19T05:25:35.285Z,16.80
2023-03-19T05:26:08.886Z,17.63
2023-03-19T05:27:07.584Z,18.13
2023-03-19T05:27:48.950Z,17.73
2023-03-19T05:28:28.540Z,17.50
2023-03-19T05:29:00.879Z,18.07
2023-03-19T05:29:42.704Z,17.57
2023-03-19T05:30:31.787Z,16.93
2023-03-19T05:31:14.529Z,17.93
2023-03-19T05:31:51.520Z,17.63
2023-03-19T05:32:25.707Z,16.87
2023-03-19T05:32:58.924Z,16.97
2023-03-19T05:33:40.636Z,16.13
2023-03-19T05:34:14.175Z,16.73
2023-03-19T05:34:46.114Z,16.77
2023-03-19T05:35:18.461Z,17.20
2023-03-19T05:35:51.785Z,16.97
2023-03-19T05:36:30.553Z,17.20
2023-03-19T05:37:11.226Z,18.27
2023-03-19T05:37:43.756Z,17.47
2023-03-19T05:38:15.973Z,16.67
2023-03-19T05:38:51.272Z,17.00
2023-03-19T05:39:30.198Z,17.43
2023-03-19T05:40:07.733Z,16.50
2023-03-19T05:40:42.679Z,17.20
2023-03-19T05:41:27.490Z,17.83
2023-03-19T05:42:05.142Z,16.43
2023-03-19T05:42:38.363Z,15.60
2023-03-19T05:43:11.824Z,16.50
2023-03-19T05:43:44.522Z,17.33
2023-03-19T05:44:26.084Z,16.40
2023-03-19T05:45:07.255Z,16.07
2023-03-19T05:45:54.652Z,16.33
2023-03-19T05:46:32.673Z,15.60
2023-03-19T05:47:07.258Z,16.50
2023-03-19T05:47:45.015Z,16.17
2023-03-19T05:48:17.300Z,15.67
2023-03-19T05:48:51.604Z,15.60
2023-03-19T05:49:23.768Z,15.13
2023-03-19T05:49:59.270Z,15.60
2023-03-19T05:50:32.338Z,15.20
2023-03-19T05:51:25.551Z,16.07
2023-03-19T05:51:58.760Z,15.87
2023-03-19T05:52:31.101Z,16.37
2023-03-19T05:53:05.469Z,15.40
2023-03-19T05:53:40.424Z,15.90
2023-03-19T05:54:35.712Z,16.23
2023-03-19T05:55:15.577Z,15.50
2023-03-19T05:55:50.662Z,15.60
2023-03-19T05:56:24.004Z,16.00
2023-03-19T05:57:14.505Z,15.70
2023-03-19T05:58:09.940Z,15.47
2023-03-19T05:58:42.530Z,15.27
2023-03-19T05:59:14.676Z,14.67
2023-03-19T05:59:52.173Z,14.37
2023-03-19T06:00:39.047Z,15.57
2023-03-19T06:01:11.270Z,16.03
2023-03-19T06:01:43.379Z,14.83
2023-03-19T06:02:15.423Z,15.07
2023-03-19T06:02:48.141Z,15.70
2023-03-19T06:03:39.866Z,13.97
2023-03-19T06:04:13.959Z,14.60
2023-03-19T06:04:46.175Z,14.50
2023-03-19T06:05:18.633Z,14.00
2023-03-19T06:05:51.491Z,15.30
2023-03-19T06:06:35.006Z,14.03
2023-03-19T06:07:10.535Z,14.43
2023-03-19T06:07:43.766Z,15.20
2023-03-19T06:08:23.620Z,14.70
2023-03-19T06:09:19.183Z,14.57
2023-03-19T06:09:58.008Z,14.80
2023-03-19T06:10:30.534Z,15.53
2023-03-19T06:11:05.858Z,14.50
2023-03-19T06:11:40.580Z,15.03
2023-03-19T06:12:44.795Z,15.30
2023-03-19T06:14:26.533Z,15.17
2023-03-19T06:15:18.423Z,14.30
2023-03-19T06:15:50.481Z,15.20
2023-03-19T06:16:37.543Z,15.23
2023-03-19T06:17:11.568Z,16.27
2023-03-19T06:17:44.767Z,16.17
2023-03-19T06:18:19.562Z,16.50
2023-03-19T06:18:52.950Z,15.20
2023-03-19T06:19:26.192Z,15.17
2023-03-19T06:19:58.568Z,16.43
2023-03-19T06:20:30.769Z,15.53
2023-03-19T06:21:06.071Z,15.23
2023-03-19T06:21:38.462Z,15.13
2023-03-19T06:22:10.944Z,15.03
2023-03-19T06:22:43.726Z,14.53
2023-03-19T06:23:16.511Z,16.07
2023-03-19T06:23:51.215Z,16.03
2023-03-19T06:24:27.493Z,15.80
2023-03-19T06:24:59.542Z,15.50
2023-03-19T06:25:31.904Z,15.23
2023-03-19T06:26:04.691Z,14.23
2023-03-19T06:26:41.050Z,14.77
2023-03-19T06:27:19.670Z,15.53
2023-03-19T06:27:51.661Z,15.27
2023-03-19T06:28:30.978Z,14.83
2023-03-19T06:29:03.736Z,14.90
2023-03-19T06:29:35.794Z,14.93
2023-03-19T06:30:20.589Z,15.30
2023-03-19T06:30:54.936Z,15.53
2023-03-19T06:31:46.948Z,15.50
2023-03-19T06:32:24.960Z,17.13
2023-03-19T06:32:58.402Z,16.53
2023-03-19T06:33:32.624Z,13.90
2023-03-19T06:34:05.494Z,14.43
2023-03-19T06:34:44.696Z,13.70
2023-03-19T06:35:23.259Z,13.77
2023-03-19T06:35:58.829Z,14.17
2023-03-19T06:36:30.860Z,12.90
2023-03-19T06:37:03.033Z,12.93
2023-03-19T06:37:34.976Z,13.93
2023-03-19T06:38:07.754Z,13.60
2023-03-19T06:38:39.675Z,13.47
2023-03-19T06:39:11.963Z,12.63
2023-03-19T06:39:44.479Z,12.93
2023-03-19T06:40:16.731Z,13.67
2023-03-19T06:40:50.850Z,14.03
2023-03-19T06:41:24.861Z,13.73
2023-03-19T06:41:57.771Z,13.43
2023-03-19T06:42:32.120Z,13.17
2023-03-19T06:43:04.346Z,13.23
2023-03-19T06:43:37.334Z,13.03
2023-03-19T06:44:09.346Z,12.93
2023-03-19T06:44:41.289Z,13.43
2023-03-19T06:45:19.111Z,13.33
2023-03-19T06:45:51.410Z,13.27
2023-03-19T06:46:24.272Z,13.60
2023-03-19T06:46:56.709Z,12.93
2023-03-19T06:47:28.957Z,12.93
2023-03-19T06:48:00.987Z,12.73
2023-03-19T06:48:34.349Z,13.27
2023-03-19T06:49:07.052Z,13.20
2023-03-19T06:49:39.226Z,12.77
2023-03-19T06:50:12.826Z,12.93
2023-03-19T06:50:48.188Z,12.50
2023-03-19T06:51:20.291Z,12.23
2023-03-19T06:51:52.307Z,12.83
2023-03-19T06:52:27.336Z,11.93
2023-03-19T06:52:59.276Z,12.17
2023-03-19T06:53:31.448Z,12.20
2023-03-19T06:54:03.911Z,12.03
2023-03-19T06:54:38.350Z,11.90
2023-03-19T06:55:11.860Z,12.37
2023-03-19T06:55:46.168Z,11.53
2023-03-19T06:56:18.175Z,11.43
2023-03-19T06:56:51.171Z,11.27
2023-03-19T06:57:23.414Z,11.20
2023-03-19T06:57:56.711Z,11.73
2023-03-19T06:58:29.189Z,11.17
2023-03-19T06:59:01.815Z,11.33
2023-03-19T06:59:33.826Z,11.67
2023-03-19T07:00:09.704Z,11.17
2023-03-19T07:00:41.812Z,12.30
2023-03-19T07:01:14.365Z,11.77
2023-03-19T07:01:47.066Z,10.53
2023-03-19T07:02:20.957Z,11.47
2023-03-19T07:02:53.277Z,11.63
2023-03-19T07:03:29.027Z,11.30
2023-03-19T07:04:05.072Z,11.30
2023-03-19T07:04:37.179Z,11.30
2023-03-19T07:05:09.613Z,11.37
2023-03-19T07:05:45.016Z,11.17
2023-03-19T07:06:17.224Z,11.33
2023-03-19T07:06:51.070Z,11.77
2023-03-19T07:07:23.415Z,11.17
2023-03-19T07:08:19.679Z,11.60
2023-03-19T07:08:51.700Z,11.47
2023-03-19T07:09:24.231Z,11.30
2023-03-19T07:09:56.626Z,11.17
2023-03-19T07:10:28.754Z,11.73
2023-03-19T07:11:05.652Z,11.17
2023-03-19T07:11:37.844Z,10.77
2023-03-19T07:12:10.581Z,11.07
2023-03-19T07:12:46.429Z,11.17
2023-03-19T07:13:18.702Z,11.57
2023-03-19T07:13:50.802Z,11.83
2023-03-19T07:14:23.965Z,11.47
2023-03-19T07:14:56.500Z,11.47
2023-03-19T07:15:28.503Z,10.90
2023-03-19T07:16:01.044Z,11.83
2023-03-19T07:16:33.515Z,12.23
2023-03-19T07:17:05.742Z,11.80
2023-03-19T07:17:37.712Z,11.03
2023-03-19T07:18:09.791Z,11.10
2023-03-19T07:18:44.818Z,12.50
2023-03-19T07:19:17.416Z,10.73
2023-03-19T07:19:49.561Z,11.37
2023-03-19T07:20:21.842Z,11.23
2023-03-19T07:20:54.853Z,12.30
2023-03-19T07:21:26.897Z,11.80
2023-03-19T07:21:59.182Z,11.40
2023-03-19T07:22:31.217Z,11.30
2023-03-19T07:23:03.507Z,12.27
2023-03-19T07:23:35.708Z,10.93
2023-03-19T07:24:08.081Z,10.80
2023-03-19T07:24:40.054Z,11.80
2023-03-19T07:25:12.062Z,11.40
2023-03-19T07:25:44.103Z,11.57
2023-03-19T07:26:16.979Z,11.87
2023-03-19T07:26:49.449Z,11.90
2023-03-19T07:27:22.065Z,11.57
2023-03-19T07:27:56.002Z,11.33
2023-03-19T07:28:28.174Z,10.87
2023-03-19T07:29:00.719Z,11.13
2023-03-19T07:29:57.674Z,10.80
2023-03-19T07:30:29.828Z,11.80
2023-03-19T07:31:01.881Z,11.70
2023-03-19T07:31:33.910Z,11.37
2023-03-19T07:32:06.444Z,12.07
2023-03-19T07:32:39.681Z,12.03